Página principal
METAR-TAF:

METAR-TAF

Aeroportos :

Acra, Gana

Aeroporto Internacional Kotoka

latitude: 05-36N, longitude: 000-10W, altura: 68 m

Observação actual do tempo

O boletim foi feito há 1 hora e 6 minutos, às 14:00 UTC
Vento 11 kt de sul
Temperatura 30°C
Humidade 66%
Pressão 1010 hPa
Visibilidade: 3500 m
bruma

METAR: DGAA 161400Z 18011KT 3500 HZ NSC 30/23 Q1010 NOSIG

Hora: 15:06 (15:06 UTC)

Previsão

O boletim foi feito há 4 horas e 6 minutos, às 11:00 UTC
Previsão válida de 16 às 12 UTC a 17 às 18 UTC
Vento 10 kt de su-sudoeste
Visibilidade: 5000 m
Poucas nuvensa uma altura de 3000 ft
bruma
Tornando-se
de 16 às 18 UTC a 16 às 20 UTC
Visibilidade: 8000 m
Tornando-se
de 17 às 01 UTC a 17 às 03 UTC
Vento 5 kt de oeste
Temporariamente
de 17 às 06 UTC a 17 às 09 UTC
Visibilidade: 3000 m
neblina

TAF: DGAA 161100Z 1612/1718 20010KT 5000 HZ NSC FEW030 BECMG 1618/1620 8000 BECMG 1701/1703 27005KT TEMPO 1706/1709 3000 BR NSC

Observações e previsões do tempo de mais de 4000 aeroportos (mensagens METAR e TAF).

As estações disponíveis são os pontos amarelos e vermelhos sobre o mapa.

Mova o rato sobre o mapa para ver o nome da estação.

Depois clique no ponto para visualizar as observações e previsões meteorológicas.

Para alterar o mapa : clique nos botões verdes com uma cruz preta para aumentar o zoom; no botão verde com uma pitada de zoom; ou nas setas verdes para mapas adjacentes.


METAR-TAF: